Time;durP1;ratioP1;P1;durP2;ratioP2;P2;SDS_P1;SDS_P2;PMS_P1;PMS_P2;Temp;Humidity;BMP_temperature;BMP_pressure;BME280_temperature;BME280_humidity;BME280_pressure;Samples;Min_cycle;Max_cycle;Signal;HPM_P1;HPM_P2
2021/03/01 00:00:09;;;;;;;60.85;23.98;;;;;;;3.76;100.00;103546.56;5006495;28;20050;-63
2021/03/01 00:02:35;;;;;;;60.28;23.15;;;;;;;3.77;100.00;103548.31;5008406;28;20054;-63
2021/03/01 00:05:01;;;;;;;46.85;20.98;;;;;;;3.78;100.00;103552.72;5003343;28;20379;-63
2021/03/01 00:07:27;;;;;;;52.40;21.15;;;;;;;3.88;100.00;103549.94;5004667;28;20573;-64
2021/03/01 00:09:53;;;;;;;50.53;20.83;;;;;;;3.91;100.00;103547.22;5009317;28;20042;-63
2021/03/01 00:12:19;;;;;;;54.30;22.38;;;;;;;3.90;100.00;103548.09;5007289;28;20085;-63
2021/03/01 00:14:45;;;;;;;53.20;23.08;;;;;;;3.83;100.00;103553.56;5008751;28;20410;-63
2021/03/01 00:17:12;;;;;;;50.42;21.70;;;;;;;3.83;100.00;103555.34;5007389;28;20053;-63
2021/03/01 00:19:38;;;;;;;54.90;21.95;;;;;;;3.86;100.00;103553.50;5008307;28;20050;-63
2021/03/01 00:22:03;;;;;;;49.97;22.52;;;;;;;3.84;100.00;103557.97;5008169;28;20056;-63
2021/03/01 00:24:29;;;;;;;50.78;22.70;;;;;;;3.80;100.00;103566.91;5007858;28;20113;-63
2021/03/01 00:26:55;;;;;;;50.90;23.23;;;;;;;3.76;100.00;103557.22;5004229;28;20136;-63
2021/03/01 00:29:21;;;;;;;49.58;22.85;;;;;;;3.80;100.00;103558.94;5015347;28;20494;-63
2021/03/01 00:31:47;;;;;;;50.22;21.52;;;;;;;3.86;100.00;103553.50;5020667;28;20049;-63
2021/03/01 00:34:14;;;;;;;53.88;22.73;;;;;;;3.72;100.00;103547.50;5019524;28;20046;-64
2021/03/01 00:36:40;;;;;;;50.55;21.38;;;;;;;3.69;100.00;103550.22;5020961;28;20053;-63
2021/03/01 00:39:06;;;;;;;52.30;21.60;;;;;;;3.74;100.00;103552.81;5020154;28;20064;-63
2021/03/01 00:41:32;;;;;;;52.10;24.95;;;;;;;3.76;100.00;103551.88;5018686;28;20045;-64
2021/03/01 00:43:58;;;;;;;53.22;24.77;;;;;;;3.71;100.00;103553.75;5021325;28;20045;-63
2021/03/01 00:46:24;;;;;;;49.10;22.67;;;;;;;3.71;100.00;103553.75;5018513;28;20054;-64
2021/03/01 00:48:49;;;;;;;57.22;24.63;;;;;;;3.79;100.00;103553.63;5012061;28;20166;-63
2021/03/01 00:51:16;;;;;;;52.22;23.70;;;;;;;3.85;100.00;103546.41;5019828;28;20061;-63
2021/03/01 00:53:42;;;;;;;49.63;22.48;;;;;;;3.81;100.00;103542.06;5019939;28;20060;-63
2021/03/01 00:56:08;;;;;;;55.50;23.52;;;;;;;3.82;100.00;103546.44;5018481;28;20045;-64
2021/03/01 00:58:34;;;;;;;51.45;23.23;;;;;;;3.76;100.00;103546.56;5019505;28;20485;-64
2021/03/01 01:01:00;;;;;;;53.75;23.52;;;;;;;3.77;100.00;103548.31;5021107;28;20037;-65
2021/03/01 01:03:26;;;;;;;54.92;24.08;;;;;;;3.83;100.00;103555.34;5019352;28;20049;-63
2021/03/01 01:12:45;;;;;;;46.78;22.30;;;;;;;3.92;100.00;103541.00;5018001;28;20470;-63
2021/03/01 01:15:12;;;;;;;53.85;22.70;;;;;;;3.93;100.00;103537.41;5019926;28;20092;-64
2021/03/01 01:17:38;;;;;;;47.55;22.75;;;;;;;3.95;100.00;103538.25;5019073;28;20053;-63
2021/03/01 01:20:07;;;;;;;43.63;22.40;;;;;;;4.02;100.00;103542.59;5019474;28;20058;-63
2021/03/01 01:22:33;;;;;;;41.95;20.75;;;;;;;4.14;100.00;103542.34;5019099;28;20057;-63
2021/03/01 01:24:59;;;;;;;47.08;21.23;;;;;;;4.02;100.00;103551.44;5018323;28;20045;-63
2021/03/01 01:27:25;;;;;;;43.45;20.90;;;;;;;4.05;100.00;103537.19;5018133;28;20097;-64
2021/03/01 01:29:52;;;;;;;37.90;19.88;;;;;;;4.02;100.00;103542.59;5018626;28;20053;-64
2021/03/01 01:32:18;;;;;;;35.25;19.73;;;;;;;3.98;100.00;103535.53;5019547;28;20057;-63
2021/03/01 01:34:44;;;;;;;40.83;20.33;;;;;;;3.89;100.00;103546.34;5019362;28;20045;-63
2021/03/01 01:37:09;;;;;;;42.28;20.52;;;;;;;3.80;100.00;103548.28;5017264;28;20057;-63
2021/03/01 01:39:35;;;;;;;39.65;20.95;;;;;;;3.81;100.00;103543.81;5018645;28;20133;-64
2021/03/01 01:42:01;;;;;;;43.03;21.33;;;;;;;3.84;100.00;103550.00;5018966;28;20123;-63
2021/03/01 01:44:59;;;;;;;41.85;20.73;;;;;;;3.95;100.00;103544.47;5053100;22;20053;-62
2021/03/01 01:47:26;;;;;;;40.80;20.55;;;;;;;3.98;100.00;103540.88;4975166;28;20061;-65
2021/03/01 01:49:52;;;;;;;43.58;22.42;;;;;;;3.97;100.00;103531.09;4987997;28;20100;-63
2021/03/01 01:52:18;;;;;;;45.28;21.80;;;;;;;4.03;100.00;103533.66;4983959;28;20501;-63
2021/03/01 01:54:44;;;;;;;40.88;19.83;;;;;;;3.99;100.00;103535.50;4982247;28;20054;-63
2021/03/01 01:57:11;;;;;;;43.97;21.65;;;;;;;3.94;100.00;103534.69;4984761;28;20062;-63
2021/03/01 01:59:37;;;;;;;46.95;22.45;;;;;;;3.89;100.00;103528.59;4985895;28;20541;-64
2021/03/01 02:02:03;;;;;;;46.20;23.33;;;;;;;3.88;100.00;103536.59;4978600;28;20096;-64
2021/03/01 02:04:33;;;;;;;40.05;21.27;;;;;;;3.93;100.00;103532.06;4986517;28;20054;-63
2021/03/01 02:07:04;;;;;;;42.10;21.70;;;;;;;3.95;100.00;103527.59;4976270;28;20054;-64
2021/03/01 02:09:40;;;;;;;39.97;20.80;;;;;;;3.91;100.00;103526.75;4985015;28;20088;-63
2021/03/01 02:12:18;;;;;;;44.50;21.83;;;;;;;3.92;100.00;103522.34;4985697;28;20061;-64
2021/03/01 02:15:09;;;;;;;37.45;20.88;;;;;;;3.88;100.00;103518.81;4980849;28;20108;-63
2021/03/01 02:17:35;;;;;;;41.45;21.58;;;;;;;3.90;100.00;103527.69;4961642;28;20047;-62
2021/03/01 02:20:05;;;;;;;41.13;20.20;;;;;;;3.89;100.00;103515.25;4983674;28;20073;-62
2021/03/01 02:22:32;;;;;;;41.15;20.83;;;;;;;3.86;100.00;103510.88;4982663;28;20058;-63
2021/03/01 02:25:04;;;;;;;39.03;20.58;;;;;;;3.92;100.00;103509.00;4984237;28;20077;-63
2021/03/01 02:27:35;;;;;;;42.20;21.60;;;;;;;3.85;100.00;103503.75;4974729;28;20046;-64
2021/03/01 02:30:06;;;;;;;43.53;21.08;;;;;;;3.69;100.00;103496.97;4986585;28;20133;-63
2021/03/01 02:32:36;;;;;;;43.42;21.27;;;;;;;3.57;100.00;103498.03;4987902;28;20057;-63
2021/03/01 02:35:05;;;;;;;38.03;19.77;;;;;;;3.51;100.00;103499.00;4986675;28;20057;-63
2021/03/01 02:37:34;;;;;;;37.22;20.58;;;;;;;3.47;100.00;103502.63;4985879;28;20074;-63
2021/03/01 02:40:01;;;;;;;42.60;20.60;;;;;;;3.36;100.00;103504.59;4987750;28;20050;-64
2021/03/01 02:42:30;;;;;;;37.90;20.15;;;;;;;3.24;100.00;103502.13;4986940;28;20141;-63
2021/03/01 02:44:56;;;;;;;42.92;20.85;;;;;;;3.21;100.00;103510.16;4987654;28;20502;-64
2021/03/01 02:47:24;;;;;;;40.80;20.63;;;;;;;3.19;100.00;103502.19;4983720;28;20066;-62
2021/03/01 02:49:54;;;;;;;41.40;20.45;;;;;;;3.11;100.00;103494.31;4986515;28;20062;-63
2021/03/01 02:52:21;;;;;;;43.97;21.08;;;;;;;2.99;100.00;103497.19;4986836;28;20057;-63
2021/03/01 02:54:49;;;;;;;37.95;19.58;;;;;;;2.92;100.00;103508.81;4987901;28;20055;-63
2021/03/01 02:57:17;;;;;;;39.40;19.25;;;;;;;2.88;100.00;103501.75;4984336;28;20109;-64
2021/03/01 02:59:43;;;;;;;39.80;20.50;;;;;;;2.78;100.00;103507.22;4986093;28;20046;-63
2021/03/01 03:02:10;;;;;;;42.38;20.65;;;;;;;2.60;100.00;103496.78;4985233;28;20078;-64
2021/03/01 03:04:37;;;;;;;38.50;20.00;;;;;;;2.63;100.00;103507.38;4988248;28;20050;-64
2021/03/01 03:07:06;;;;;;;40.20;19.63;;;;;;;2.58;100.00;103493.28;4987226;28;20050;-63
2021/03/01 03:09:32;;;;;;;41.17;20.83;;;;;;;2.52;100.00;103496.00;4989337;28;20058;-64
2021/03/01 03:12:02;;;;;;;43.03;20.10;;;;;;;2.50;100.00;103498.69;4989974;28;20105;-63
2021/03/01 03:14:32;;;;;;;40.28;20.67;;;;;;;2.44;100.00;103493.44;4989980;28;20109;-65
2021/03/01 03:17:00;;;;;;;47.40;20.38;;;;;;;2.37;100.00;103487.34;4987002;28;20120;-63
2021/03/01 03:19:26;;;;;;;41.78;21.15;;;;;;;2.41;100.00;103490.81;4990109;28;20081;-63
2021/03/01 03:21:53;;;;;;;42.78;20.52;;;;;;;2.39;100.00;103490.84;4989060;28;20042;-63
2021/03/01 03:24:19;;;;;;;43.88;21.55;;;;;;;2.26;100.00;103492.75;4991216;28;20065;-63
2021/03/01 03:26:45;;;;;;;43.35;21.48;;;;;;;2.23;100.00;103491.91;4989594;28;20050;-64
2021/03/01 03:29:12;;;;;;;44.88;21.45;;;;;;;2.16;100.00;103492.88;4987098;28;20072;-63
2021/03/01 03:31:38;;;;;;;45.30;21.75;;;;;;;2.17;100.00;103487.56;4990199;28;20046;-62
2021/03/01 03:34:05;;;;;;;44.30;21.50;;;;;;;2.16;100.00;103485.78;4989603;28;20050;-63
2021/03/01 03:36:35;;;;;;;45.95;22.13;;;;;;;2.15;100.00;103493.78;4988525;28;20057;-64
2021/03/01 03:39:06;;;;;;;44.75;22.73;;;;;;;2.10;100.00;103480.53;4984539;28;20065;-64
2021/03/01 03:41:33;;;;;;;49.53;21.85;;;;;;;2.01;100.00;103486.81;4988259;28;20046;-63
2021/03/01 03:44:02;;;;;;;48.38;21.60;;;;;;;1.98;100.00;103478.88;4990701;28;20046;-64
2021/03/01 03:46:30;;;;;;;47.80;22.00;;;;;;;1.90;100.00;103475.44;4988097;28;20050;-63
2021/03/01 03:48:57;;;;;;;43.95;20.25;;;;;;;1.92;100.00;103482.47;4988828;28;20057;-62
2021/03/01 03:51:26;;;;;;;48.05;23.00;;;;;;;1.94;100.00;103479.81;4988652;28;20050;-63
2021/03/01 03:53:57;;;;;;;50.35;22.95;;;;;;;1.96;100.00;103477.13;4991060;28;20133;-63
2021/03/01 03:56:26;;;;;;;50.92;22.48;;;;;;;1.99;100.00;103471.78;4986969;28;20097;-63
2021/03/01 03:58:57;;;;;;;59.88;24.95;;;;;;;1.97;100.00;103482.44;4988121;28;20057;-63
2021/03/01 04:01:25;;;;;;;60.88;26.10;;;;;;;1.99;100.00;103487.72;4988499;28;20058;-63
2021/03/01 04:03:52;;;;;;;67.30;27.17;;;;;;;1.97;100.00;103485.09;4990377;28;20054;-63
2021/03/01 04:06:21;;;;;;;70.88;28.35;;;;;;;1.89;100.00;103485.19;4989516;28;20054;-62
2021/03/01 04:11:26;;;;;;;62.45;26.48;;;;;;;1.95;100.00;103489.56;5027254;23;20405;-63
2021/03/01 04:13:55;;;;;;;61.73;26.80;;;;;;;1.92;100.00;103500.22;5019817;28;20049;-63
2021/03/01 04:16:21;;;;;;;62.87;26.57;;;;;;;1.96;100.00;103498.38;5017867;28;20279;-63
2021/03/01 04:18:49;;;;;;;55.58;26.75;;;;;;;1.99;100.00;103493.94;5016950;28;20284;-63
2021/03/01 04:21:19;;;;;;;76.53;28.58;;;;;;;1.95;100.00;103486.91;5013779;28;20045;-64
2021/03/01 04:23:46;;;;;;;;;;;;;;;1.95;100.00;103486.91;5017674;28;20056;-64
2021/03/01 04:26:12;;;;;;;64.72;25.10;;;;;;;1.89;100.00;103486.97;5016024;28;19936;-64
2021/03/01 04:28:40;;;;;;;69.28;27.67;;;;;;;1.88;100.00;103486.06;5014689;28;20549;-63
2021/03/01 04:31:09;;;;;;;67.43;29.15;;;;;;;1.91;100.00;103479.84;5013989;28;20057;-63
2021/03/01 04:33:36;;;;;;;67.40;27.52;;;;;;;1.85;100.00;103491.41;5017567;28;20057;-63
2021/03/01 04:36:04;;;;;;;69.60;29.23;;;;;;;1.88;100.00;103491.38;5016456;28;20045;-62
2021/03/01 04:38:31;;;;;;;74.40;28.13;;;;;;;1.87;100.00;103496.69;5014697;28;20140;-64
2021/03/01 04:40:58;;;;;;;69.00;28.20;;;;;;;1.86;100.00;103497.63;5014282;28;20159;-63
2021/03/01 04:43:27;;;;;;;67.55;26.60;;;;;;;1.93;100.00;103500.19;5015960;28;20490;-64
2021/03/01 04:45:54;;;;;;;70.22;27.60;;;;;;;1.92;100.00;103508.19;5015799;28;20054;-64
2021/03/01 04:48:21;;;;;;;76.40;31.10;;;;;;;1.91;100.00;103511.72;5015000;28;20053;-62
2021/03/01 04:50:49;;;;;;;70.63;28.17;;;;;;;1.90;100.00;103500.22;5019040;28;20070;-63
2021/03/01 04:53:15;;;;;;;66.03;27.08;;;;;;;1.91;100.00;103491.38;5016574;28;20057;-64
2021/03/01 04:55:43;;;;;;;68.75;26.50;;;;;;;1.92;100.00;103494.91;5015467;28;20524;-63
2021/03/01 04:58:10;;;;;;;64.07;26.83;;;;;;;1.98;100.00;103491.31;5008475;28;20533;-62
2021/03/01 05:00:37;;;;;;;65.50;28.20;;;;;;;1.93;100.00;103499.31;5014400;28;20054;-62
2021/03/01 05:03:06;;;;;;;64.47;27.40;;;;;;;1.97;100.00;103493.06;5017060;28;20532;-62
2021/03/01 05:05:33;;;;;;;62.38;24.83;;;;;;;2.08;100.00;103493.84;5015064;28;20050;-63
2021/03/01 05:08:01;;;;;;;58.78;24.55;;;;;;;2.03;100.00;103490.38;5012680;28;20060;-63
2021/03/01 05:10:28;;;;;;;63.63;26.63;;;;;;;1.96;100.00;103491.31;5016646;28;20052;-63
2021/03/01 05:12:55;;;;;;;61.50;24.48;;;;;;;1.99;100.00;103498.34;5017508;28;20045;-63
2021/03/01 05:15:21;;;;;;;63.33;24.85;;;;;;;1.93;100.00;103504.63;5015379;28;20053;-63
2021/03/01 05:17:47;;;;;;;61.22;24.20;;;;;;;1.99;100.00;103498.34;5012135;28;20112;-63
2021/03/01 05:20:13;;;;;;;60.30;25.15;;;;;;;1.98;100.00;103500.13;5014707;28;20392;-64
2021/03/01 05:22:39;;;;;;;62.63;25.52;;;;;;;2.07;100.00;103497.38;5015793;28;20050;-63
2021/03/01 05:25:07;;;;;;;59.83;24.35;;;;;;;2.07;100.00;103496.50;5016532;28;20052;-63
2021/03/01 05:27:33;;;;;;;53.90;22.83;;;;;;;2.09;100.00;103494.72;5011071;28;20478;-62
2021/03/01 05:30:03;;;;;;;58.60;24.88;;;;;;;2.19;100.00;103490.19;5015006;28;20038;-64
2021/03/01 05:32:29;;;;;;;54.80;24.40;;;;;;;2.25;100.00;103495.44;5018706;28;20394;-64
2021/03/01 05:34:55;;;;;;;59.55;25.05;;;;;;;2.24;100.00;103489.25;5017239;28;20060;-64
2021/03/01 05:37:21;;;;;;;53.92;23.70;;;;;;;2.20;100.00;103484.84;5014498;28;20049;-63
2021/03/01 05:39:47;;;;;;;51.75;22.83;;;;;;;2.24;100.00;103483.06;5011894;28;20058;-62
2021/03/01 05:42:17;;;;;;;57.70;22.98;;;;;;;2.36;100.00;103480.25;5017912;28;20077;-63
2021/03/01 05:44:44;;;;;;;56.70;24.92;;;;;;;2.30;100.00;103490.97;5016213;28;20545;-64
2021/03/01 05:47:11;;;;;;;56.53;22.80;;;;;;;2.29;100.00;103478.56;5014639;28;20058;-63
2021/03/01 05:49:39;;;;;;;58.63;23.13;;;;;;;2.37;100.00;103481.13;5015605;28;20045;-62
2021/03/01 05:52:06;;;;;;;55.83;22.88;;;;;;;2.43;100.00;103486.38;5016467;28;20060;-63
2021/03/01 05:54:34;;;;;;;53.03;23.30;;;;;;;2.42;100.00;103480.16;5013361;28;20102;-63
2021/03/01 05:57:02;;;;;;;56.80;23.55;;;;;;;2.40;100.00;103479.31;5010742;28;20049;-63
2021/03/01 05:59:28;;;;;;;62.33;23.05;;;;;;;2.57;100.00;103476.44;5011728;28;20053;-63
2021/03/01 06:01:56;;;;;;;59.67;22.88;;;;;;;2.49;100.00;103477.44;5014397;28;20060;-64
2021/03/01 06:04:23;;;;;;;52.85;21.40;;;;;;;2.50;100.00;103479.19;5012058;28;20064;-64
2021/03/01 06:06:49;;;;;;;54.70;21.52;;;;;;;2.56;100.00;103471.13;5015808;28;20052;-63
2021/03/01 06:09:15;;;;;;;56.22;21.55;;;;;;;2.57;100.00;103476.44;5009728;28;20061;-64
2021/03/01 06:11:41;;;;;;;63.17;24.33;;;;;;;2.60;100.00;103481.72;5016056;28;20494;-62
2021/03/01 06:14:07;;;;;;;55.85;21.50;;;;;;;2.61;100.00;103479.94;5014165;28;20115;-63
2021/03/01 06:16:33;;;;;;;60.85;22.45;;;;;;;2.63;100.00;103476.38;5012277;28;20418;-63
2021/03/01 06:18:59;;;;;;;45.50;19.35;;;;;;;2.74;100.00;103472.66;5014351;28;20053;-63
2021/03/01 06:21:26;;;;;;;52.03;20.35;;;;;;;2.79;100.00;103479.69;5014803;28;20612;-63
2021/03/01 06:23:53;;;;;;;50.58;20.63;;;;;;;2.82;100.00;103475.25;5016030;28;20054;-62
2021/03/01 06:26:21;;;;;;;60.72;21.05;;;;;;;2.84;100.00;103471.63;5015052;28;20570;-63
2021/03/01 06:28:48;;;;;;;55.53;20.42;;;;;;;2.85;100.00;103464.56;5013623;28;20069;-63
2021/03/01 06:31:35;;;;;;;53.13;21.80;;;;;;;2.84;100.00;103473.44;5013073;28;20469;-63
2021/03/01 06:34:25;;;;;;;49.60;18.77;;;;;;;2.89;100.00;103466.28;5013623;28;20049;-63
2021/03/01 06:37:11;;;;;;;42.38;18.50;;;;;;;2.88;100.00;103464.50;5014733;28;20397;-63
2021/03/01 06:39:39;;;;;;;47.30;19.60;;;;;;;2.92;100.00;103461.78;5018391;28;20116;-63
2021/03/01 06:42:28;;;;;;;50.28;19.70;;;;;;;2.98;100.00;103460.81;5016604;28;20068;-63
2021/03/01 06:45:14;;;;;;;52.00;19.50;;;;;;;3.03;100.00;103464.28;5016682;28;20058;-65
2021/03/01 06:47:49;;;;;;;49.95;18.95;;;;;;;3.01;100.00;103459.91;5017028;28;20482;-64
2021/03/01 06:50:33;;;;;;;44.88;17.45;;;;;;;3.04;100.00;103474.03;5018551;28;20505;-64
2021/03/01 06:53:15;;;;;;;46.75;17.40;;;;;;;2.96;100.00;103467.97;5021380;28;20053;-63
2021/03/01 06:55:55;;;;;;;42.65;16.80;;;;;;;3.01;100.00;103473.22;5018506;28;20053;-63
2021/03/01 06:58:24;;;;;;;49.97;19.38;;;;;;;3.05;100.00;103474.91;5017875;28;20990;-63
2021/03/01 07:00:59;;;;;;;51.35;18.13;;;;;;;3.15;100.00;103474.75;5017731;28;20050;-63
2021/03/01 07:03:25;;;;;;;56.08;20.20;;;;;;;3.08;100.00;103481.06;5021385;28;20061;-63
2021/03/01 07:05:54;;;;;;;53.00;19.52;;;;;;;3.18;100.00;103483.59;5018378;28;20080;-63
2021/03/01 07:08:39;;;;;;;44.38;18.45;;;;;;;3.31;100.00;103495.78;5018668;28;20065;-64
2021/03/01 07:11:20;;;;;;;48.70;18.85;;;;;;;3.32;100.00;103482.47;5019979;28;20060;-63
2021/03/01 07:13:47;;;;;;;46.58;17.70;;;;;;;3.30;100.00;103483.41;5018332;28;20144;-63
2021/03/01 07:16:13;;;;;;;47.80;17.17;;;;;;;3.28;100.00;103482.53;5018966;28;20380;-63
2021/03/01 07:18:40;;;;;;;50.05;18.38;;;;;;;3.28;100.00;103491.41;5018507;28;20042;-63
2021/03/01 07:21:07;;;;;;;42.33;16.60;;;;;;;3.27;100.00;103489.66;5017696;28;20406;-63
2021/03/01 07:23:35;;;;;;;49.55;18.35;;;;;;;3.26;100.00;103495.00;5020256;28;20049;-63
2021/03/01 07:26:02;;;;;;;45.78;19.13;;;;;;;3.25;100.00;103496.75;5016262;28;20053;-64
2021/03/01 07:28:32;;;;;;;46.50;17.88;;;;;;;3.21;100.00;103502.16;5018962;28;20081;-64
2021/03/01 07:31:02;;;;;;;43.03;17.42;;;;;;;3.23;100.00;103498.59;5018077;28;20057;-64
2021/03/01 07:33:28;;;;;;;42.83;16.40;;;;;;;3.22;100.00;103495.94;5002800;28;20046;-62
2021/03/01 07:35:55;;;;;;;36.83;15.73;;;;;;;3.26;100.00;103503.00;5004485;28;20069;-63
2021/03/01 07:38:21;;;;;;;46.63;16.45;;;;;;;3.24;100.00;103499.44;5015799;28;20057;-64
2021/03/01 07:40:48;;;;;;;53.10;18.77;;;;;;;3.25;100.00;103493.22;5018377;28;20046;-63
2021/03/01 07:43:15;;;;;;;42.75;17.20;;;;;;;3.35;100.00;103501.97;5016835;28;20057;-63
2021/03/01 07:45:44;;;;;;;48.55;16.08;;;;;;;3.39;100.00;103504.56;5016535;28;20042;-63
2021/03/01 07:48:15;;;;;;;39.65;16.17;;;;;;;3.34;100.00;103511.72;5017780;28;20049;-63
2021/03/01 07:50:43;;;;;;;46.97;14.88;;;;;;;3.33;100.00;103504.66;5014830;28;20041;-63
2021/03/01 07:53:44;;;;;;;39.42;16.05;;;;;;;3.30;100.00;103504.72;5014442;28;20506;-63
2021/03/01 07:56:46;;;;;;;39.33;15.68;;;;;;;3.41;100.00;103507.19;5017900;28;20054;-63
2021/03/01 07:59:20;;;;;;;38.08;15.18;;;;;;;3.54;100.00;103510.53;5016826;28;20400;-63
2021/03/01 08:01:46;;;;;;;34.97;14.93;;;;;;;3.56;100.00;103516.72;5016862;28;20054;-63
2021/03/01 08:04:33;;;;;;;36.05;14.70;;;;;;;3.50;100.00;103513.25;5017181;28;20042;-63
2021/03/01 08:06:59;;;;;;;33.80;15.13;;;;;;;3.49;100.00;103510.63;5017191;28;20140;-63
2021/03/01 08:09:46;;;;;;;37.85;13.95;;;;;;;3.55;100.00;103522.94;5014970;28;20049;-63
2021/03/01 08:12:13;;;;;;;36.78;14.05;;;;;;;3.64;100.00;103515.69;5014739;28;20053;-62
2021/03/01 08:15:00;;;;;;;33.13;14.60;;;;;;;3.61;100.00;103520.19;5014797;28;20045;-64
2021/03/01 08:17:31;;;;;;;35.05;13.15;;;;;;;3.70;100.00;103520.03;5014810;28;20438;-64
2021/03/01 08:19:59;;;;;;;36.42;13.57;;;;;;;3.73;100.00;103522.63;5010582;28;20124;-63
2021/03/01 08:22:25;;;;;;;30.70;13.23;;;;;;;3.81;100.00;103520.75;5013131;28;20053;-64
2021/03/01 08:24:52;;;;;;;29.23;12.73;;;;;;;3.85;100.00;103518.88;5014850;28;20132;-63
2021/03/01 08:27:40;;;;;;;35.08;12.50;;;;;;;3.93;100.00;103513.41;5015637;28;20099;-63
2021/03/01 08:30:24;;;;;;;28.85;12.85;;;;;;;3.90;100.00;103510.81;5016582;28;20057;-63
2021/03/01 08:33:22;;;;;;;30.48;12.32;;;;;;;3.93;100.00;103518.75;5013570;28;20054;-64
2021/03/01 08:35:50;;;;;;;28.30;12.23;;;;;;;3.88;100.00;103517.97;5013991;28;20045;-63
2021/03/01 08:38:18;;;;;;;26.02;12.75;;;;;;;3.99;100.00;103521.28;5009356;28;20109;-63
2021/03/01 08:40:52;;;;;;;31.00;13.32;;;;;;;4.06;100.00;103524.75;5015080;28;20049;-63
2021/03/01 08:43:30;;;;;;;27.60;12.35;;;;;;;4.05;100.00;103515.88;5007442;28;20409;-63
2021/03/01 08:45:58;;;;;;;29.35;12.32;;;;;;;4.06;100.00;103522.06;5013688;28;20061;-62
2021/03/01 08:48:25;;;;;;;26.88;11.63;;;;;;;4.10;100.00;103521.97;5009552;28;20061;-64
2021/03/01 08:50:52;;;;;;;30.02;11.98;;;;;;;4.15;100.00;103528.13;5036112;23;20049;-63
2021/03/01 08:53:22;;;;;;;30.02;12.57;;;;;;;4.18;100.00;103524.50;5000748;28;20058;-63
2021/03/01 08:55:48;;;;;;;31.35;13.23;;;;;;;4.21;100.00;103516.44;5001609;28;20068;-63
2021/03/01 08:58:15;;;;;;;32.28;13.32;;;;;;;4.47;100.00;103515.94;4997859;28;20060;-62
2021/03/01 09:00:54;;;;;;;31.52;14.45;;;;;;;4.18;100.00;103512.06;4999276;28;20054;-62
2021/03/01 09:03:23;;;;;;;32.15;12.82;;;;;;;4.32;100.00;103521.59;4998551;28;20053;-63
2021/03/01 09:05:51;;;;;;;28.25;13.30;;;;;;;4.29;100.00;103516.31;5000094;28;20049;-64
2021/03/01 09:08:25;;;;;;;32.97;13.32;;;;;;;4.35;100.00;103518.84;4999453;28;20129;-63
2021/03/01 09:10:51;;;;;;;28.17;12.15;;;;;;;4.46;100.00;103513.31;5000497;28;20053;-63
2021/03/01 09:13:19;;;;;;;33.33;13.82;;;;;;;4.56;100.00;103515.78;4999656;28;20057;-63
2021/03/01 09:15:45;;;;;;;28.13;12.82;;;;;;;4.61;100.00;103507.66;4999893;28;20466;-63
2021/03/01 09:18:12;;;;;;;29.27;12.45;;;;;;;4.77;100.00;103513.56;4996840;28;20054;-63
2021/03/01 09:20:41;;;;;;;31.17;13.38;;;;;;;4.69;100.00;103507.50;4997633;28;20050;-64
2021/03/01 09:23:08;;;;;;;27.23;13.05;;;;;;;4.77;100.00;103510.91;5000499;28;20046;-63
2021/03/01 09:25:35;;;;;;;27.33;12.10;;;;;;;4.70;100.00;103501.25;5000839;28;20124;-64
2021/03/01 09:28:01;;;;;;;27.60;12.20;;;;;;;4.76;100.00;103498.47;4997676;28;20053;-63
2021/03/01 09:32:59;;;;;;;25.30;11.85;;;;;;;5.19;100.00;103492.13;5030277;23;20470;-63
2021/03/01 09:35:27;;;;;;;26.75;11.20;;;;;;;5.29;100.00;103497.28;5013850;28;20068;-64
2021/03/01 09:37:54;;;;;;;24.35;12.05;;;;;;;5.00;100.00;103488.16;5009066;28;20130;-63
2021/03/01 09:40:21;;;;;;;26.95;12.20;;;;;;;5.07;100.00;103492.44;5013243;28;20530;-63
2021/03/01 09:42:50;;;;;;;31.73;12.32;;;;;;;5.15;100.00;103485.09;5016162;28;20561;-64
2021/03/01 09:45:17;;;;;;;25.15;12.10;;;;;;;5.24;100.00;103482.25;5011398;28;20050;-63
2021/03/01 09:47:43;;;;;;;25.42;11.27;;;;;;;5.49;100.00;103478.97;5011518;28;20049;-64
2021/03/01 09:50:10;;;;;;;25.77;10.65;;;;;;;5.66;100.00;103486.53;5014931;28;20057;-63
2021/03/01 09:52:36;;;;;;;23.15;11.65;;;;;;;5.90;100.00;103489.50;5013267;28;20052;-63
2021/03/01 09:55:04;;;;;;;23.63;11.45;;;;;;;5.94;100.00;103486.69;5016278;28;20509;-64
2021/03/01 09:57:30;;;;;;;24.13;12.07;;;;;;;5.96;100.00;103487.53;5012490;28;20224;-63
2021/03/01 09:59:56;;;;;;;24.45;11.10;;;;;;;5.96;100.00;103490.22;5011791;28;20485;-64
2021/03/01 10:02:24;;;;;;;24.23;10.80;;;;;;;5.89;100.00;103477.94;5000519;28;20056;-63
2021/03/01 10:04:52;;;;;;;21.30;11.50;;;;;;;6.10;100.00;103478.31;5011503;28;20060;-63
2021/03/01 10:07:19;;;;;;;27.42;11.20;;;;;;;6.36;100.00;103487.38;5013151;28;20079;-64
2021/03/01 10:09:46;;;;;;;22.42;10.88;;;;;;;6.37;100.00;103483.78;5016937;28;20065;-63
2021/03/01 10:12:13;;;;;;;22.73;11.07;;;;;;;6.37;100.00;103479.31;5018447;28;20053;-63
2021/03/01 10:14:40;;;;;;;23.17;10.55;;;;;;;6.34;100.00;103473.19;5021806;28;20080;-63
2021/03/01 10:17:19;;;;;;;21.10;10.98;;;;;;;6.29;100.00;103479.53;5022412;28;20049;-63
2021/03/01 10:19:45;;;;;;;;;;;;;;;6.29;100.00;103476.84;5019564;28;20105;-64
2021/03/01 10:22:12;;;;;;;22.08;10.88;;;;;;;6.13;100.00;103481.75;5021870;28;19929;-64
2021/03/01 10:24:45;;;;;;;27.58;11.73;;;;;;;6.11;100.00;103472.91;5022464;28;20454;-64
2021/03/01 10:27:11;;;;;;;29.13;10.95;;;;;;;6.07;100.00;103475.72;5021807;28;20407;-63
2021/03/01 10:29:40;;;;;;;26.88;10.50;;;;;;;6.25;100.00;103472.50;5022746;28;20054;-63
2021/03/01 10:32:17;;;;;;;26.80;11.02;;;;;;;6.28;100.00;103468.88;5011400;28;20056;-64
2021/03/01 10:34:44;;;;;;;23.65;10.88;;;;;;;6.38;100.00;103473.03;5005003;28;20419;-63
2021/03/01 10:37:11;;;;;;;25.33;10.05;;;;;;;6.56;100.00;103468.06;5015107;28;20072;-63
2021/03/01 10:39:38;;;;;;;26.60;10.60;;;;;;;6.47;100.00;103474.56;5014224;28;20050;-63
2021/03/01 10:42:11;;;;;;;26.17;11.25;;;;;;;6.58;100.00;103472.47;5011943;28;20836;-63
2021/03/01 10:44:41;;;;;;;27.40;11.85;;;;;;;6.82;100.00;103460.13;5014081;28;20049;-63
2021/03/01 10:47:12;;;;;;;28.23;11.98;;;;;;;6.87;99.49;103457.31;5011630;28;20735;-63
2021/03/01 10:49:38;;;;;;;23.80;10.80;;;;;;;6.91;98.83;103463.47;5018582;28;20491;-64
2021/03/01 10:52:07;;;;;;;22.55;10.88;;;;;;;7.06;98.72;103462.09;5012977;28;20084;-63
2021/03/01 10:54:35;;;;;;;26.35;11.60;;;;;;;6.97;97.55;103466.81;5014864;28;20044;-63
2021/03/01 10:57:00;;;;;;;26.48;11.55;;;;;;;7.12;97.62;103469.94;5010823;28;20073;-63
2021/03/01 10:59:26;;;;;;;30.67;10.75;;;;;;;7.12;96.40;103465.44;5014309;28;20065;-63
2021/03/01 11:01:53;;;;;;;23.52;10.57;;;;;;;7.25;96.46;103470.41;5016386;28;20076;-63
2021/03/01 11:04:20;;;;;;;24.42;10.43;;;;;;;7.31;95.56;103465.72;5017539;28;20124;-64
2021/03/01 11:06:47;;;;;;;25.88;10.82;;;;;;;7.41;94.89;103465.44;5019924;28;20054;-63
2021/03/01 11:09:14;;;;;;;22.05;9.52;;;;;;;7.46;94.46;103467.00;5020174;28;20387;-64
2021/03/01 11:11:40;;;;;;;21.92;9.68;;;;;;;7.46;92.92;103458.09;5021276;28;20068;-63
2021/03/01 11:14:09;;;;;;;22.65;9.43;;;;;;;7.53;92.65;103452.47;5021527;28;20054;-63
2021/03/01 11:16:35;;;;;;;23.42;10.63;;;;;;;7.60;93.22;103452.28;5019745;28;20050;-63
2021/03/01 11:19:03;;;;;;;21.50;9.77;;;;;;;7.64;92.26;103452.13;5020616;28;20054;-64
2021/03/01 11:21:29;;;;;;;20.85;9.88;;;;;;;7.84;93.26;103450.53;5016750;28;20042;-63
2021/03/01 11:23:55;;;;;;;24.42;10.18;;;;;;;7.95;91.68;103448.34;5016340;28;20074;-64
2021/03/01 11:26:21;;;;;;;22.75;9.80;;;;;;;7.90;91.52;103442.28;5012770;28;20049;-63
2021/03/01 11:28:47;;;;;;;24.65;9.98;;;;;;;7.88;90.82;103441.47;4997100;28;20062;-63